Time;durP1;ratioP1;P1;durP2;ratioP2;P2;SDS_P1;SDS_P2;PMS_P1;PMS_P2;Temp;Humidity;BMP_temperature;BMP_pressure;BME280_temperature;BME280_humidity;BME280_pressure;Samples;Min_cycle;Max_cycle;Signal;HPM_P1;HPM_P2
2022/08/16 00:01:28;;;;;;;;;;;21.80;63.10;;;;;;5044656;28;87106;-38
2022/08/16 00:03:54;;;;;;;;;;;21.80;63.10;;;;;;5044071;28;88131;-37
2022/08/16 00:06:20;;;;;;;;;;;21.80;63.10;;;;;;5044370;28;87872;-38
2022/08/16 00:08:45;;;;;;;;;;;21.80;63.10;;;;;;5044913;28;86907;-38
2022/08/16 00:11:11;;;;;;;;;;;21.80;63.10;;;;;;5043997;28;87077;-38
2022/08/16 00:13:37;;;;;;;;;;;21.80;63.00;;;;;;5044512;28;87050;-38
2022/08/16 00:16:03;;;;;;;;;;;21.80;63.10;;;;;;5043126;27;91435;-38
2022/08/16 00:18:29;;;;;;;;;;;21.70;63.00;;;;;;5043918;28;88008;-38
2022/08/16 00:20:54;;;;;;;;;;;21.80;63.10;;;;;;5046933;28;87157;-38
2022/08/16 00:23:20;;;;;;;;;;;21.70;63.00;;;;;;5043905;28;88134;-38
2022/08/16 00:25:46;;;;;;;;;;;21.70;63.10;;;;;;5044258;28;87093;-37
2022/08/16 00:28:12;;;;;;;;;;;21.70;63.00;;;;;;5044302;28;87000;-37
2022/08/16 00:30:37;;;;;;;;;;;21.70;63.00;;;;;;5043754;28;88199;-38
2022/08/16 00:33:03;;;;;;;;;;;21.70;63.00;;;;;;5044528;28;86163;-38
2022/08/16 00:35:30;;;;;;;;;;;21.70;63.10;;;;;;5044253;28;86896;-38
2022/08/16 00:37:56;;;;;;;;;;;21.70;63.00;;;;;;5043402;28;88081;-37
2022/08/16 00:40:24;;;;;;;;;;;21.60;63.00;;;;;;5043144;28;88094;-38
2022/08/16 00:42:50;;;;;;;;;;;21.70;63.00;;;;;;5046285;27;89749;-38
2022/08/16 00:45:31;;;;;;;;;;;21.60;63.00;;;;;;5043909;28;87093;-38
2022/08/16 00:47:56;;;;;;;;;;;21.70;63.00;;;;;;5043817;28;87497;-37
2022/08/16 00:50:24;;;;;;;;;;;21.60;63.00;;;;;;5043336;28;87129;-37
2022/08/16 00:52:50;;;;;;;;;;;21.60;63.00;;;;;;5043617;28;87131;-38
2022/08/16 00:55:15;;;;;;;;;;;21.60;63.00;;;;;;5042828;27;87564;-38
2022/08/16 00:57:41;;;;;;;;;;;21.60;63.00;;;;;;5044010;28;87872;-38
2022/08/16 01:00:07;;;;;;;;;;;21.60;62.90;;;;;;5043625;28;87028;-38
2022/08/16 01:02:33;;;;;;;;;;;21.60;63.00;;;;;;5043562;28;87430;-38
2022/08/16 01:04:59;;;;;;;;;;;21.50;63.00;;;;;;5045265;28;89228;-38
2022/08/16 01:07:24;;;;;;;;;;;21.50;63.00;;;;;;5043655;27;88398;-38
2022/08/16 01:09:50;;;;;;;;;;;21.50;63.60;;;;;;5043425;28;88296;-38
2022/08/16 01:12:18;;;;;;;;;;;21.50;63.00;;;;;;5043445;28;87014;-38
2022/08/16 01:14:45;;;;;;;;;;;21.50;63.00;;;;;;5043110;27;89028;-38
2022/08/16 01:17:12;;;;;;;;;;;21.50;63.00;;;;;;5042441;28;88104;-37
2022/08/16 01:19:42;;;;;;;;;;;21.50;63.00;;;;;;5043090;28;87281;-38
2022/08/16 01:22:18;;;;;;;;;;;21.50;63.00;;;;;;5043732;28;87473;-37
2022/08/16 01:24:50;;;;;;;;;;;21.50;63.10;;;;;;5042576;28;88620;-38
2022/08/16 01:27:20;;;;;;;;;;;21.50;63.10;;;;;;5045910;28;87006;-37
2022/08/16 01:29:49;;;;;;;;;;;21.50;63.10;;;;;;5042175;28;88978;-37
2022/08/16 01:32:15;;;;;;;;;;;21.40;63.00;;;;;;5042685;28;87181;-38
2022/08/16 01:34:41;;;;;;;;;;;21.40;63.00;;;;;;5042857;27;89163;-38
2022/08/16 01:37:09;;;;;;;;;;;21.40;63.10;;;;;;5042874;28;87796;-38
2022/08/16 01:39:34;;;;;;;;;;;21.50;63.10;;;;;;5043002;28;87337;-38
2022/08/16 01:42:00;;;;;;;;;;;21.40;63.00;;;;;;5043088;28;86952;-38
2022/08/16 01:44:26;;;;;;;;;;;21.40;63.10;;;;;;5042829;28;88035;-38
2022/08/16 01:46:54;;;;;;;;;;;21.40;63.10;;;;;;5043437;28;85963;-38
2022/08/16 01:49:21;;;;;;;;;;;21.40;63.10;;;;;;5045566;27;88324;-37
2022/08/16 01:51:52;;;;;;;;;;;21.40;63.00;;;;;;5042876;28;87105;-38
2022/08/16 01:54:17;;;;;;;;;;;21.40;63.10;;;;;;5042458;27;87913;-38
2022/08/16 01:56:43;;;;;;;;;;;21.40;63.10;;;;;;5042612;28;88071;-37
2022/08/16 01:59:11;;;;;;;;;;;21.40;63.20;;;;;;5043009;28;87145;-37
2022/08/16 02:01:36;;;;;;;;;;;21.30;63.20;;;;;;5042562;27;89375;-38
2022/08/16 02:04:02;;;;;;;;;;;21.40;63.10;;;;;;5042459;28;87966;-37
2022/08/16 02:06:28;;;;;;;;;;;21.40;63.10;;;;;;5042599;28;86993;-37
2022/08/16 02:08:56;;;;;;;;;;;21.30;63.20;;;;;;5045522;27;87337;-37
2022/08/16 02:11:23;;;;;;;;;;;21.30;63.10;;;;;;5043206;28;86411;-37
2022/08/16 02:13:48;;;;;;;;;;;21.30;63.20;;;;;;5042263;27;87978;-37
2022/08/16 02:16:14;;;;;;;;;;;21.30;63.80;;;;;;5042021;28;87943;-37
2022/08/16 02:18:40;;;;;;;;;;;21.30;63.20;;;;;;5041978;28;88090;-37
2022/08/16 02:21:06;;;;;;;;;;;21.20;63.10;;;;;;5042616;28;88425;-37
2022/08/16 02:23:33;;;;;;;;;;;21.30;63.20;;;;;;5042136;28;87972;-38
2022/08/16 02:25:58;;;;;;;;;;;21.20;63.20;;;;;;5042334;28;86971;-37
2022/08/16 02:28:25;;;;;;;;;;;21.20;63.20;;;;;;5042726;28;87549;-37
2022/08/16 02:30:51;;;;;;;;;;;21.30;63.20;;;;;;5044788;28;89441;-37
2022/08/16 02:33:16;;;;;;;;;;;21.20;63.10;;;;;;5042117;27;87836;-38
2022/08/16 02:35:42;;;;;;;;;;;21.20;63.20;;;;;;5042851;28;87409;-37
2022/08/16 02:38:07;;;;;;;;;;;21.20;63.20;;;;;;5042339;28;87217;-37
2022/08/16 02:40:33;;;;;;;;;;;21.20;63.10;;;;;;5042253;28;87336;-37
2022/08/16 02:42:59;;;;;;;;;;;21.20;63.20;;;;;;5041478;28;88203;-38
2022/08/16 02:45:26;;;;;;;;;;;21.20;63.20;;;;;;5042038;28;87563;-38
2022/08/16 02:47:52;;;;;;;;;;;21.20;63.30;;;;;;5042094;28;87285;-38
2022/08/16 02:50:18;;;;;;;;;;;21.20;63.20;;;;;;5042026;28;87918;-37
2022/08/16 02:52:44;;;;;;;;;;;21.10;63.20;;;;;;5045222;28;87076;-38
2022/08/16 02:55:10;;;;;;;;;;;21.10;63.20;;;;;;5041954;28;87976;-38
2022/08/16 02:57:35;;;;;;;;;;;21.10;63.20;;;;;;5041952;28;87107;-37
2022/08/16 03:00:07;;;;;;;;;;;21.10;63.20;;;;;;5042352;28;87565;-38
2022/08/16 03:02:33;;;;;;;;;;;21.10;63.30;;;;;;5041593;28;89296;-37
2022/08/16 03:04:59;;;;;;;;;;;21.10;63.30;;;;;;5042069;28;87816;-37
2022/08/16 03:07:24;;;;;;;;;;;21.10;63.30;;;;;;5041458;27;87891;-37
2022/08/16 03:09:50;;;;;;;;;;;21.10;63.30;;;;;;5041773;28;87544;-37
2022/08/16 03:12:17;;;;;;;;;;;21.10;63.30;;;;;;5041946;28;86996;-37
2022/08/16 03:14:42;;;;;;;;;;;21.00;63.40;;;;;;5044092;28;88964;-37
2022/08/16 03:17:08;;;;;;;;;;;21.00;63.30;;;;;;5041688;28;87107;-37
2022/08/16 03:19:33;;;;;;;;;;;21.10;63.40;;;;;;5044529;27;86940;-37
2022/08/16 03:21:59;;;;;;;;;;;21.00;63.30;;;;;;5044746;28;89702;-37
2022/08/16 03:24:25;;;;;;;;;;;21.00;63.30;;;;;;5045855;28;86321;-38
2022/08/16 03:26:51;;;;;;;;;;;21.00;63.30;;;;;;5045152;27;87007;-38
2022/08/16 03:29:16;;;;;;;;;;;21.00;63.30;;;;;;5044619;28;88228;-37
2022/08/16 03:31:42;;;;;;;;;;;21.00;63.40;;;;;;5044681;28;88075;-38
2022/08/16 03:34:07;;;;;;;;;;;21.00;63.30;;;;;;5044895;27;89893;-37
2022/08/16 03:36:33;;;;;;;;;;;21.00;63.40;;;;;;5047804;28;88018;-38
2022/08/16 03:38:58;;;;;;;;;;;21.00;63.40;;;;;;5045247;28;87504;-37
2022/08/16 03:41:25;;;;;;;;;;;21.00;63.40;;;;;;5044670;28;87615;-38
2022/08/16 03:43:53;;;;;;;;;;;21.00;63.50;;;;;;5044601;28;87193;-37
2022/08/16 03:46:20;;;;;;;;;;;20.90;63.40;;;;;;5044953;28;87407;-37
2022/08/16 03:48:46;;;;;;;;;;;21.00;63.50;;;;;;5044792;28;89001;-37
2022/08/16 03:51:12;;;;;;;;;;;20.90;63.40;;;;;;5045116;28;87083;-37
2022/08/16 03:53:38;;;;;;;;;;;20.90;63.50;;;;;;5044894;27;87318;-37
2022/08/16 03:56:03;;;;;;;;;;;20.90;63.50;;;;;;5043762;28;89213;-38
2022/08/16 03:58:29;;;;;;;;;;;20.90;63.50;;;;;;5047498;28;87111;-38
2022/08/16 04:00:54;;;;;;;;;;;20.90;63.40;;;;;;5044385;28;87996;-37
2022/08/16 04:03:20;;;;;;;;;;;20.90;63.50;;;;;;5044646;28;87158;-38
2022/08/16 04:05:47;;;;;;;;;;;20.80;63.40;;;;;;5044605;27;87029;-37
2022/08/16 04:08:13;;;;;;;;;;;20.90;63.40;;;;;;5044257;28;87871;-38
2022/08/16 04:10:39;;;;;;;;;;;20.80;63.40;;;;;;5044491;28;87116;-37
2022/08/16 04:13:05;;;;;;;;;;;20.90;63.50;;;;;;5044760;27;86424;-37
2022/08/16 04:15:30;;;;;;;;;;;20.80;63.30;;;;;;5043693;28;88104;-38
2022/08/16 04:17:56;;;;;;;;;;;20.80;63.40;;;;;;5047371;28;86797;-37
2022/08/16 04:20:22;;;;;;;;;;;20.80;63.40;;;;;;5043453;28;89086;-38
2022/08/16 04:22:47;;;;;;;;;;;20.80;63.50;;;;;;5044274;28;87069;-37
2022/08/16 04:25:13;;;;;;;;;;;20.80;63.40;;;;;;5044288;28;87762;-38
2022/08/16 04:27:39;;;;;;;;;;;20.80;63.50;;;;;;5043693;28;88123;-37
2022/08/16 04:30:10;;;;;;;;;;;20.80;63.50;;;;;;5043160;27;87091;-37
2022/08/16 04:32:36;;;;;;;;;;;20.80;63.50;;;;;;5044085;27;88747;-38
2022/08/16 04:35:02;;;;;;;;;;;20.80;63.50;;;;;;5043408;28;89359;-37
2022/08/16 04:37:27;;;;;;;;;;;20.80;63.40;;;;;;5044583;28;86348;-38
2022/08/16 04:39:53;;;;;;;;;;;20.80;63.40;;;;;;5046716;28;87025;-37
2022/08/16 04:42:18;;;;;;;;;;;20.70;63.50;;;;;;5043585;28;87052;-37
2022/08/16 04:44:44;;;;;;;;;;;20.80;63.50;;;;;;5043019;27;88885;-37
2022/08/16 04:47:10;;;;;;;;;;;20.70;63.60;;;;;;5043407;28;89288;-38
2022/08/16 04:49:35;;;;;;;;;;;20.70;63.60;;;;;;5044205;28;87120;-38
2022/08/16 04:52:01;;;;;;;;;;;20.70;63.60;;;;;;5044269;28;87572;-38
2022/08/16 04:54:26;;;;;;;;;;;20.70;63.60;;;;;;5043610;28;86758;-37
2022/08/16 04:56:52;;;;;;;;;;;20.70;63.50;;;;;;5043786;28;87122;-37
2022/08/16 04:59:17;;;;;;;;;;;20.70;63.50;;;;;;5043548;28;87418;-37
2022/08/16 05:01:43;;;;;;;;;;;20.70;63.50;;;;;;5046899;28;87319;-38
2022/08/16 05:04:08;;;;;;;;;;;20.70;63.50;;;;;;5043928;28;86946;-37
2022/08/16 05:06:34;;;;;;;;;;;20.70;63.70;;;;;;5043294;28;88115;-37
2022/08/16 05:08:59;;;;;;;;;;;20.70;63.50;;;;;;5043192;28;88044;-38
2022/08/16 05:11:26;;;;;;;;;;;20.70;63.60;;;;;;5043713;28;88469;-37
2022/08/16 05:13:51;;;;;;;;;;;20.70;63.60;;;;;;5042824;28;89425;-37
2022/08/16 05:16:19;;;;;;;;;;;20.70;63.60;;;;;;5042883;28;87114;-37
2022/08/16 05:18:44;;;;;;;;;;;20.70;63.60;;;;;;5043236;27;88781;-38
2022/08/16 05:21:10;;;;;;;;;;;20.70;63.60;;;;;;5043334;28;88090;-37
2022/08/16 05:23:36;;;;;;;;;;;20.70;63.70;;;;;;5046518;28;86988;-38
2022/08/16 05:26:01;;;;;;;;;;;20.60;63.60;;;;;;5043585;28;87465;-38
2022/08/16 05:28:27;;;;;;;;;;;20.60;63.80;;;;;;5042929;28;87186;-38
2022/08/16 05:30:53;;;;;;;;;;;20.60;63.60;;;;;;5043381;28;87297;-37
2022/08/16 05:33:20;;;;;;;;;;;20.70;63.70;;;;;;5041913;28;89846;-38
2022/08/16 05:35:46;;;;;;;;;;;20.70;63.70;;;;;;5043161;28;87320;-37
2022/08/16 05:38:12;;;;;;;;;;;20.70;63.70;;;;;;5043243;28;86985;-38
2022/08/16 05:40:37;;;;;;;;;;;20.60;63.70;;;;;;5042823;27;87962;-38
2022/08/16 05:43:03;;;;;;;;;;;20.70;63.60;;;;;;5042759;28;87125;-38
2022/08/16 05:45:29;;;;;;;;;;;20.70;63.80;;;;;;5045604;27;87399;-38
2022/08/16 05:47:55;;;;;;;;;;;20.60;63.60;;;;;;5042846;28;87183;-38
2022/08/16 05:50:20;;;;;;;;;;;20.70;63.60;;;;;;5043387;27;88871;-38
2022/08/16 05:52:46;;;;;;;;;;;20.70;63.60;;;;;;5042582;28;88148;-37
2022/08/16 05:55:11;;;;;;;;;;;20.60;63.70;;;;;;5042589;28;86892;-38
2022/08/16 05:57:37;;;;;;;;;;;20.70;63.60;;;;;;5042168;27;88927;-37
2022/08/16 06:00:08;;;;;;;;;;;20.70;63.70;;;;;;5042657;28;88087;-37
2022/08/16 06:02:33;;;;;;;;;;;20.70;63.70;;;;;;5042974;28;87016;-38
2022/08/16 06:04:59;;;;;;;;;;;20.70;63.50;;;;;;5045463;28;87092;-39
2022/08/16 06:07:24;;;;;;;;;;;20.70;63.70;;;;;;5042779;28;87091;-38
2022/08/16 06:09:50;;;;;;;;;;;20.70;63.70;;;;;;5042718;28;87357;-37
2022/08/16 06:12:17;;;;;;;;;;;20.70;63.70;;;;;;5042396;28;88184;-38
2022/08/16 06:14:43;;;;;;;;;;;20.70;63.70;;;;;;5043034;28;86368;-38
2022/08/16 06:17:08;;;;;;;;;;;20.70;64.50;;;;;;5042235;27;88536;-37
2022/08/16 06:19:34;;;;;;;;;;;20.60;63.70;;;;;;5042391;28;88146;-37
2022/08/16 06:21:59;;;;;;;;;;;20.70;64.00;;;;;;5042144;28;88128;-38
2022/08/16 06:24:25;;;;;;;;;;;20.70;64.00;;;;;;5042515;27;87946;-38
2022/08/16 06:26:50;;;;;;;;;;;20.70;63.70;;;;;;5044837;28;88013;-38
2022/08/16 06:29:16;;;;;;;;;;;20.70;63.80;;;;;;5042540;28;87374;-38
2022/08/16 06:31:41;;;;;;;;;;;20.70;63.50;;;;;;5042311;28;88013;-37
2022/08/16 06:34:07;;;;;;;;;;;20.70;63.70;;;;;;5042398;28;87165;-38
2022/08/16 06:36:32;;;;;;;;;;;20.80;63.60;;;;;;5042406;28;87460;-38
2022/08/16 06:38:58;;;;;;;;;;;20.80;63.50;;;;;;5042554;28;87570;-37
2022/08/16 06:41:24;;;;;;;;;;;20.80;63.50;;;;;;5042441;28;87123;-38
2022/08/16 06:43:50;;;;;;;;;;;20.80;63.60;;;;;;5042462;27;87570;-37
2022/08/16 06:46:28;;;;;;;;;;;20.80;63.60;;;;;;5041175;28;89128;-37
2022/08/16 06:48:54;;;;;;;;;;;20.80;63.60;;;;;;5045056;28;86895;-38
2022/08/16 06:51:19;;;;;;;;;;;20.80;63.70;;;;;;5041836;28;88043;-37
2022/08/16 06:53:45;;;;;;;;;;;20.80;63.70;;;;;;5043662;27;87064;-37
2022/08/16 06:56:10;;;;;;;;;;;20.80;63.70;;;;;;5045711;27;87393;-38
2022/08/16 06:58:36;;;;;;;;;;;20.80;63.60;;;;;;5045483;28;87918;-38
2022/08/16 07:01:03;;;;;;;;;;;20.80;63.80;;;;;;5045826;28;87091;-37
2022/08/16 07:03:29;;;;;;;;;;;20.80;64.20;;;;;;5046145;27;87355;-38
2022/08/16 07:05:55;;;;;;;;;;;20.80;63.50;;;;;;5045246;28;86964;-37
2022/08/16 07:08:22;;;;;;;;;;;20.80;63.70;;;;;;5045555;28;87082;-38
2022/08/16 07:10:48;;;;;;;;;;;20.80;63.70;;;;;;5047130;28;89070;-37
2022/08/16 07:13:14;;;;;;;;;;;20.80;63.50;;;;;;5045516;28;87059;-37
2022/08/16 07:15:41;;;;;;;;;;;20.80;63.40;;;;;;5045061;28;87511;-37
2022/08/16 07:18:06;;;;;;;;;;;20.90;63.50;;;;;;5044881;28;89504;-37
2022/08/16 07:20:32;;;;;;;;;;;20.90;63.50;;;;;;5045339;28;87077;-37
2022/08/16 07:22:57;;;;;;;;;;;20.90;63.40;;;;;;5045323;27;87692;-37
2022/08/16 07:25:23;;;;;;;;;;;20.90;63.30;;;;;;5044797;28;88054;-38
2022/08/16 07:27:48;;;;;;;;;;;20.90;63.20;;;;;;5045403;28;86174;-38
2022/08/16 07:30:15;;;;;;;;;;;20.90;63.40;;;;;;5045407;28;87013;-38
2022/08/16 07:32:40;;;;;;;;;;;20.90;63.50;;;;;;5047660;28;88190;-38
2022/08/16 07:35:06;;;;;;;;;;;20.90;63.20;;;;;;5044435;27;87884;-37
2022/08/16 07:37:32;;;;;;;;;;;20.90;63.30;;;;;;5044503;28;88599;-38
2022/08/16 07:39:57;;;;;;;;;;;20.90;63.70;;;;;;5044975;28;87113;-38
2022/08/16 07:42:23;;;;;;;;;;;20.90;63.70;;;;;;5045123;28;87718;-38
2022/08/16 07:44:49;;;;;;;;;;;20.90;63.40;;;;;;5044529;28;87928;-37
2022/08/16 07:47:15;;;;;;;;;;;20.90;63.70;;;;;;5045103;28;87129;-37
2022/08/16 07:49:40;;;;;;;;;;;20.90;63.80;;;;;;5044882;28;87266;-37
2022/08/16 07:52:06;;;;;;;;;;;20.90;64.00;;;;;;5045145;28;86487;-37
2022/08/16 07:54:32;;;;;;;;;;;20.90;63.60;;;;;;5047537;28;87094;-37
2022/08/16 07:56:57;;;;;;;;;;;21.00;63.90;;;;;;5044405;28;87629;-38
2022/08/16 07:59:24;;;;;;;;;;;21.00;63.80;;;;;;5044238;28;87998;-37
2022/08/16 08:01:51;;;;;;;;;;;21.00;63.80;;;;;;5044460;28;89909;-37
2022/08/16 08:04:17;;;;;;;;;;;21.00;63.70;;;;;;5043785;27;89417;-38
2022/08/16 08:06:43;;;;;;;;;;;21.00;63.80;;;;;;5044579;28;87121;-38
2022/08/16 08:09:09;;;;;;;;;;;21.00;63.90;;;;;;5044658;28;87449;-38
2022/08/16 08:11:34;;;;;;;;;;;21.00;64.00;;;;;;5043925;28;88105;-38
2022/08/16 08:14:00;;;;;;;;;;;21.00;64.10;;;;;;5047171;28;87146;-37
2022/08/16 08:16:26;;;;;;;;;;;21.00;64.10;;;;;;5043902;28;88812;-38
2022/08/16 08:18:53;;;;;;;;;;;21.10;64.00;;;;;;5044567;28;87012;-37
2022/08/16 08:21:20;;;;;;;;;;;21.10;64.10;;;;;;5044259;27;87374;-38
2022/08/16 08:23:46;;;;;;;;;;;21.10;64.00;;;;;;5043590;28;89009;-38
2022/08/16 08:26:12;;;;;;;;;;;21.10;64.00;;;;;;5043749;28;87188;-38
2022/08/16 08:28:37;;;;;;;;;;;21.10;64.00;;;;;;5044418;27;87403;-37
2022/08/16 08:31:03;;;;;;;;;;;21.20;63.90;;;;;;5043579;28;89800;-38
2022/08/16 08:33:30;;;;;;;;;;;21.10;63.90;;;;;;5044198;28;87110;-38
2022/08/16 08:35:56;;;;;;;;;;;21.10;64.00;;;;;;5046204;28;89000;-38
2022/08/16 08:38:22;;;;;;;;;;;21.10;64.00;;;;;;5044268;28;86963;-38
2022/08/16 08:41:07;;;;;;;;;;;21.20;64.00;;;;;;5044454;28;87344;-38
2022/08/16 08:43:34;;;;;;;;;;;21.20;64.00;;;;;;5043571;28;87535;-38
2022/08/16 08:46:00;;;;;;;;;;;21.20;64.20;;;;;;5043608;28;87107;-37
2022/08/16 08:48:26;;;;;;;;;;;21.20;64.10;;;;;;5043314;27;87914;-38
2022/08/16 08:50:51;;;;;;;;;;;21.30;64.20;;;;;;5043644;28;88109;-38
2022/08/16 08:53:17;;;;;;;;;;;21.20;64.00;;;;;;5043795;28;87110;-38
2022/08/16 08:55:43;;;;;;;;;;;21.20;64.00;;;;;;5043616;28;88887;-38
2022/08/16 08:58:08;;;;;;;;;;;21.30;64.10;;;;;;5046016;28;89585;-37
2022/08/16 09:00:35;;;;;;;;;;;21.30;64.00;;;;;;5043726;28;87392;-38
2022/08/16 09:03:00;;;;;;;;;;;21.30;64.00;;;;;;5042893;28;89155;-37
2022/08/16 09:05:26;;;;;;;;;;;21.30;63.90;;;;;;5043907;28;86334;-38
2022/08/16 09:07:52;;;;;;;;;;;21.40;64.10;;;;;;5043639;27;87526;-38
2022/08/16 09:10:18;;;;;;;;;;;21.30;64.10;;;;;;5043413;28;87932;-38
2022/08/16 09:12:45;;;;;;;;;;;21.40;64.30;;;;;;5042699;28;88016;-38
2022/08/16 09:15:11;;;;;;;;;;;21.40;64.30;;;;;;5043265;28;87551;-38
2022/08/16 09:17:38;;;;;;;;;;;21.40;64.30;;;;;;5042614;28;87373;-38
2022/08/16 09:20:05;;;;;;;;;;;21.40;64.30;;;;;;5046216;28;87106;-38
2022/08/16 09:22:31;;;;;;;;;;;21.40;64.40;;;;;;5042484;28;89781;-38
2022/08/16 09:24:57;;;;;;;;;;;21.40;64.50;;;;;;5043178;28;87127;-38
2022/08/16 09:27:23;;;;;;;;;;;21.50;64.50;;;;;;5043533;28;87703;-38
2022/08/16 09:29:49;;;;;;;;;;;21.50;64.60;;;;;;5043742;28;87225;-38
2022/08/16 09:32:17;;;;;;;;;;;21.50;64.40;;;;;;5043453;28;87014;-38
2022/08/16 09:34:43;;;;;;;;;;;21.50;64.50;;;;;;5043167;27;87463;-38
2022/08/16 09:37:08;;;;;;;;;;;21.50;64.40;;;;;;5041914;28;88779;-38
2022/08/16 09:39:34;;;;;;;;;;;21.60;64.40;;;;;;5043616;28;87164;-38
2022/08/16 09:41:59;;;;;;;;;;;21.60;64.40;;;;;;5045842;28;87066;-38
2022/08/16 09:44:26;;;;;;;;;;;21.60;64.40;;;;;;5042809;28;87134;-38
2022/08/16 09:46:52;;;;;;;;;;;21.60;64.40;;;;;;5043084;28;87504;-38
2022/08/16 09:49:18;;;;;;;;;;;21.70;64.50;;;;;;5042344;28;89265;-38
2022/08/16 09:51:44;;;;;;;;;;;21.70;64.30;;;;;;5042834;28;87141;-38
2022/08/16 09:54:09;;;;;;;;;;;21.70;64.40;;;;;;5043518;27;86676;-38
2022/08/16 09:56:36;;;;;;;;;;;21.70;64.50;;;;;;5042705;28;87756;-38
2022/08/16 09:59:03;;;;;;;;;;;21.70;64.40;;;;;;5042861;28;86980;-38
2022/08/16 10:01:30;;;;;;;;;;;21.70;64.20;;;;;;5042271;28;87936;-38
2022/08/16 10:03:56;;;;;;;;;;;21.80;64.30;;;;;;5045134;28;88623;-38
2022/08/16 10:06:22;;;;;;;;;;;21.80;64.20;;;;;;5042353;27;89006;-38
2022/08/16 10:08:48;;;;;;;;;;;21.80;64.30;;;;;;5042490;28;87899;-38
2022/08/16 10:13:58;;;;;;;;;;;21.90;64.40;;;;;;5041371;28;86962;-38
2022/08/16 10:16:23;;;;;;;;;;;21.90;64.20;;;;;;5041887;28;87725;-38
2022/08/16 10:18:49;;;;;;;;;;;21.90;64.40;;;;;;5043181;28;86384;-38
2022/08/16 10:21:15;;;;;;;;;;;21.80;64.50;;;;;;5042801;27;86979;-38
2022/08/16 10:23:41;;;;;;;;;;;21.90;64.40;;;;;;5044956;28;89536;-37
2022/08/16 10:26:06;;;;;;;;;;;21.90;64.50;;;;;;5041974;27;88142;-38
2022/08/16 10:28:32;;;;;;;;;;;21.90;64.60;;;;;;5043411;27;88491;-38
2022/08/16 10:30:59;;;;;;;;;;;21.90;64.50;;;;;;5046196;28;87079;-38
2022/08/16 10:33:26;;;;;;;;;;;21.90;64.40;;;;;;5046166;28;87848;-38
2022/08/16 10:35:51;;;;;;;;;;;22.00;64.50;;;;;;5045439;28;89340;-38
2022/08/16 10:38:17;;;;;;;;;;;22.00;64.50;;;;;;5046142;28;86978;-38
2022/08/16 10:40:43;;;;;;;;;;;22.00;64.40;;;;;;5045943;27;87226;-38
2022/08/16 10:43:08;;;;;;;;;;;22.00;64.30;;;;;;5045611;28;88925;-38
2022/08/16 10:45:34;;;;;;;;;;;22.00;64.30;;;;;;5048772;28;87034;-38
2022/08/16 10:48:00;;;;;;;;;;;22.00;64.30;;;;;;5045341;28;87760;-38
2022/08/16 10:50:25;;;;;;;;;;;22.00;64.40;;;;;;5045211;28;88109;-38
2022/08/16 10:52:52;;;;;;;;;;;22.10;64.40;;;;;;5045839;28;88194;-38
2022/08/16 10:55:18;;;;;;;;;;;22.10;64.40;;;;;;5045513;28;87948;-38
2022/08/16 10:57:44;;;;;;;;;;;22.10;64.30;;;;;;5045782;28;87956;-38
2022/08/16 11:00:14;;;;;;;;;;;22.10;64.20;;;;;;5045661;27;87350;-38
2022/08/16 11:02:40;;;;;;;;;;;22.20;64.30;;;;;;5045181;28;87312;-38
2022/08/16 11:05:11;;;;;;;;;;;22.20;64.10;;;;;;5045587;28;87109;-38
2022/08/16 11:07:37;;;;;;;;;;;22.20;64.10;;;;;;5048441;27;88823;-38
2022/08/16 11:10:03;;;;;;;;;;;22.30;64.10;;;;;;5045546;28;87093;-38
2022/08/16 11:12:29;;;;;;;;;;;22.30;64.10;;;;;;5045487;28;87358;-38
2022/08/16 11:14:54;;;;;;;;;;;22.30;64.00;;;;;;5044437;28;89196;-39
2022/08/16 11:17:20;;;;;;;;;;;22.30;63.90;;;;;;5045515;28;87994;-38
2022/08/16 11:19:45;;;;;;;;;;;22.30;64.00;;;;;;5045501;27;87399;-38
2022/08/16 11:22:11;;;;;;;;;;;22.30;64.00;;;;;;5044983;28;88201;-38
2022/08/16 11:24:39;;;;;;;;;;;22.40;64.00;;;;;;5045312;28;87079;-38
2022/08/16 11:27:07;;;;;;;;;;;22.40;64.10;;;;;;5044990;27;89137;-38
2022/08/16 11:29:34;;;;;;;;;;;22.40;64.10;;;;;;5047645;28;89439;-38
2022/08/16 11:31:59;;;;;;;;;;;22.40;64.10;;;;;;5045555;28;89263;-38
2022/08/16 11:34:25;;;;;;;;;;;22.40;64.10;;;;;;5044540;28;87874;-38
2022/08/16 11:36:51;;;;;;;;;;;22.40;64.10;;;;;;5045103;28;87096;-38
2022/08/16 11:39:16;;;;;;;;;;;22.50;64.00;;;;;;5044044;27;89023;-39
2022/08/16 11:41:42;;;;;;;;;;;22.50;63.80;;;;;;5044742;28;87930;-37
2022/08/16 11:44:08;;;;;;;;;;;22.50;63.80;;;;;;5045003;28;87082;-37
2022/08/16 11:46:34;;;;;;;;;;;22.60;63.80;;;;;;5044882;27;87083;-38
2022/08/16 11:49:00;;;;;;;;;;;22.60;63.90;;;;;;5044434;28;89554;-37
2022/08/16 11:51:26;;;;;;;;;;;22.60;63.90;;;;;;5047626;28;87062;-37
2022/08/16 11:53:51;;;;;;;;;;;22.60;63.80;;;;;;5044088;28;89391;-37
2022/08/16 11:56:17;;;;;;;;;;;22.70;63.80;;;;;;5044971;28;86379;-37
2022/08/16 11:58:43;;;;;;;;;;;22.70;63.70;;;;;;5044915;28;87041;-37
2022/08/16 12:01:09;;;;;;;;;;;22.70;63.70;;;;;;5044428;28;87940;-37
2022/08/16 12:03:34;;;;;;;;;;;22.70;63.50;;;;;;5043834;28;89258;-37
2022/08/16 12:06:02;;;;;;;;;;;22.80;63.60;;;;;;5044755;27;88111;-37
2022/08/16 12:08:29;;;;;;;;;;;22.80;63.60;;;;;;5044248;28;87949;-37
2022/08/16 12:10:55;;;;;;;;;;;22.80;63.50;;;;;;5044464;28;87463;-37
2022/08/16 12:13:20;;;;;;;;;;;22.90;63.40;;;;;;5046752;27;88874;-37
2022/08/16 12:15:46;;;;;;;;;;;22.80;63.50;;;;;;5044041;28;87170;-37
2022/08/16 12:18:12;;;;;;;;;;;22.90;63.40;;;;;;5044332;27;88965;-37
2022/08/16 12:20:42;;;;;;;;;;;22.90;63.30;;;;;;5044629;28;87274;-37
2022/08/16 12:23:07;;;;;;;;;;;22.90;63.30;;;;;;5044057;28;87389;-37
2022/08/16 12:25:33;;;;;;;;;;;23.00;63.30;;;;;;5043965;27;88805;-37
2022/08/16 12:27:59;;;;;;;;;;;23.00;63.20;;;;;;5043181;28;89069;-37
2022/08/16 12:30:27;;;;;;;;;;;23.10;63.40;;;;;;5044202;28;87398;-37
2022/08/16 12:32:53;;;;;;;;;;;23.10;63.30;;;;;;5046274;27;88834;-37
2022/08/16 12:35:20;;;;;;;;;;;23.00;63.10;;;;;;5043899;28;87083;-37
2022/08/16 12:37:46;;;;;;;;;;;23.10;63.10;;;;;;5044129;27;87638;-37
2022/08/16 12:40:14;;;;;;;;;;;23.00;63.10;;;;;;5043440;28;89550;-37
2022/08/16 12:42:40;;;;;;;;;;;23.10;63.00;;;;;;5043867;28;87124;-38
2022/08/16 12:45:09;;;;;;;;;;;23.10;62.80;;;;;;5044447;27;86511;-38
2022/08/16 12:50:18;;;;;;;;;;;23.10;62.70;;;;;;5043438;27;87056;-38
2022/08/16 12:52:44;;;;;;;;;;;23.10;62.30;;;;;;5042510;27;88925;-38
2022/08/16 12:55:10;;;;;;;;;;;23.20;62.50;;;;;;5046446;28;88197;-38
2022/08/16 12:57:36;;;;;;;;;;;23.20;62.40;;;;;;5043684;28;88986;-39
2022/08/16 13:00:03;;;;;;;;;;;23.20;62.20;;;;;;5042806;28;88215;-38
2022/08/16 13:02:28;;;;;;;;;;;23.30;62.30;;;;;;5043030;28;87126;-38
2022/08/16 13:04:54;;;;;;;;;;;23.30;62.20;;;;;;5043267;28;87454;-38
2022/08/16 13:07:19;;;;;;;;;;;23.30;62.10;;;;;;5042726;28;88226;-38
2022/08/16 13:09:53;;;;;;;;;;;23.40;62.20;;;;;;5043941;28;86664;-38
2022/08/16 13:12:22;;;;;;;;;;;23.40;62.00;;;;;;5043097;27;88225;-38
2022/08/16 13:14:50;;;;;;;;;;;23.40;61.90;;;;;;5042666;28;89440;-39
2022/08/16 13:17:18;;;;;;;;;;;23.40;61.90;;;;;;5045175;28;88054;-38
2022/08/16 13:19:44;;;;;;;;;;;23.40;61.80;;;;;;5042439;28;89306;-38
2022/08/16 13:22:10;;;;;;;;;;;23.50;61.60;;;;;;5043269;28;86929;-38
2022/08/16 13:24:36;;;;;;;;;;;23.50;61.60;;;;;;5041856;28;89842;-38
2022/08/16 13:27:01;;;;;;;;;;;23.50;61.60;;;;;;5042448;28;87462;-38
2022/08/16 13:29:27;;;;;;;;;;;23.50;61.60;;;;;;5042973;28;87110;-38
2022/08/16 13:31:52;;;;;;;;;;;23.50;61.60;;;;;;5043097;28;87541;-38
2022/08/16 13:34:18;;;;;;;;;;;23.60;61.70;;;;;;5043156;28;87460;-38
2022/08/16 13:36:43;;;;;;;;;;;23.60;61.70;;;;;;5042706;28;87070;-35
2022/08/16 13:39:09;;;;;;;;;;;23.60;59.60;;;;;;5045251;27;88795;-37
2022/08/16 13:41:35;;;;;;;;;;;23.60;56.90;;;;;;5042356;28;88069;-37
2022/08/16 13:44:01;;;;;;;;;;;23.60;58.20;;;;;;5042583;28;88189;-36
2022/08/16 13:46:27;;;;;;;;;;;23.50;58.80;;;;;;5042496;28;88162;-37
2022/08/16 13:48:53;;;;;;;;;;;23.60;59.00;;;;;;5042856;28;86872;-37
2022/08/16 13:51:22;;;;;;;;;;;23.70;59.20;;;;;;5042634;27;86965;-37
2022/08/16 13:53:49;;;;;;;;;;;23.70;59.40;;;;;;5041990;28;89155;-37
2022/08/16 13:56:17;;;;;;;;;;;23.80;60.00;;;;;;5042587;28;87179;-37
2022/08/16 13:58:42;;;;;;;;;;;23.80;59.50;;;;;;5042951;28;88854;-37
2022/08/16 14:01:08;;;;;;;;;;;23.80;59.70;;;;;;5045325;28;88130;-37
2022/08/16 14:03:33;;;;;;;;;;;23.80;59.70;;;;;;5042214;27;87032;-37
2022/08/16 14:05:59;;;;;;;;;;;23.80;59.50;;;;;;5041518;28;88237;-37
2022/08/16 14:08:24;;;;;;;;;;;23.90;59.90;;;;;;5042409;28;87160;-37
2022/08/16 14:10:50;;;;;;;;;;;23.90;59.50;;;;;;5042248;28;88897;-37
2022/08/16 14:13:16;;;;;;;;;;;23.90;59.70;;;;;;5041881;28;89548;-37
2022/08/16 14:15:42;;;;;;;;;;;23.90;59.80;;;;;;5041928;28;87083;-37